Tiempo atmosférico en la estación meteorológica de Calanda, Teruel (459 m.)

Fecha
DESCASC
Temp. máxima en grados centígrados (hora)
DESCASC
Temp. mínima en grados centígrados (hora)
DESCASC
Temp. media en grados centígrados
DESCASC
Racha de viento máxima en m/sg (hora)
DESCASC
Velocidad máxima media en intervalos de 10 minutos(hora)
DESCASC
Precipitaciones diarias en mm
DESCASC
Precipitaciones de 00:00 a 06:00 en mm
DESCASC
Precipitaciones de 06:00 a 12:00 en mm
DESCASC
Precipitaciones de 12:00 a 18:00 en mm
DESCASC
Precipitaciones de 18:00 a 24:00 en mm
DESCASC
17-09-2017 -- (--) -- (--) -- -- (--) -- (--) -- -- -- -- --
16-09-2017 -- (--) -- (--) -- -- (--) -- (--) -- -- -- 0 --
15-09-2017 -- (--) -- (--) -- -- (--) -- (--) -- 0 0 5.2 --
14-09-2017 25.8 (15:20) 15.9 (00:00) 20.8 13.89 (12:30) 8.33 (12:30) 0 0 0 0 0
13-09-2017 30.3 (18:10) 13.8 (00:00) 22 7.22 (17:10) 4.72 (07:20) 0 0 0 0 0
12-09-2017 24.2 (17:10) 15.9 (00:00) 20.1 12.22 (12:40) 6.39 (16:10) 0 0 0 0 0
11-09-2017 28.7 (15:20) 14.3 (00:00) 21.5 13.33 (13:30) 6.94 (10:10) 0 0 0 0 0
10-09-2017 22 (16:10) 12.7 (00:00) 17.3 19.72 (09:50) 10.83 (09:50) 0 0 0 0 0
09-09-2017 22.4 (00:00) 14.2 (00:00) 18.3 15.28 (18:20) 8.33 (13:10) 0 0 0 0 0
08-09-2017 27.7 (18:10) 10.7 (00:00) 19.2 8.89 (21:40) 4.72 (21:40) 0 0 0 0 0
07-09-2017 26.3 (17:30) 13.6 (00:00) 19.9 10 (11:00) 5 (11:20) 0 0 0 0 0
06-09-2017 29.1 (16:20) 18.3 (00:00) 23.7 9.72 (20:30) 5.56 (19:50) 0 0 0 0 0
05-09-2017 30.8 (16:50) 17.8 (00:00) 24.3 9.72 (00:20) 4.72 (00:10) 0 0 0 0 0
04-09-2017 28.3 (17:30) 16.9 (00:00) 22.6 11.11 (21:20) 4.72 (22:50) 0 0 0 0 0
03-09-2017 27.8 (18:40) 13.3 (00:00) 20.5 6.67 (16:50) 4.17 (07:40) 0 0 0 0 0
02-09-2017 24.6 (16:50) 13.4 (00:00) 19 12.5 (13:10) 6.67 (12:30) 0 0 0 0 0
01-09-2017 24.4 (16:30) 15.9 (00:00) 20.1 10.28 (18:20) 6.11 (17:00) 0 0 0 0 0
31-08-2017 24 (16:00) 16.5 (00:00) 20.3 8.33 (13:40) 3.89 (10:10) 0 0 0 0 0
30-08-2017 28.2 (15:30) 18.9 (00:00) 23.6 14.17 (03:30) 8.61 (03:30) 4 0.2 0 2.4 1.4
29-08-2017 24.4 (16:20) 17.5 (00:00) 20.9 17.5 (22:20) 8.89 (18:00) 0.4 0 0 0 0.4
28-08-2017 30.4 (16:40) 18.6 (00:00) 24.5 9.17 (22:50) 5.56 (22:20) 0.4 0 0 0 0.4
27-08-2017 32.1 (15:20) 20.6 (00:00) 26.3 15 (17:00) 8.06 (16:50) 0 0 0 0 0
26-08-2017 35 (16:20) 18.6 (00:00) 26.8 23.61 (19:00) 13.06 (19:00) 18.6 0 0.2 0 18.4
25-08-2017 36.8 (17:00) 21 (00:00) 28.9 24.44 (22:20) 10 (22:40) 0 0 0 0 0
24-08-2017 36.6 (17:00) 20.4 (00:00) 28.5 15 (22:40) 8.61 (02:10) 0 0 0 0 0
23-08-2017 32 (14:50) 20.9 (00:00) 26.4 14.17 (20:50) 6.39 (20:50) 0 0 0 0 0
22-08-2017 37.2 (17:30) 19.6 (00:00) 28.4 11.11 (01:20) 6.11 (21:00) 0 0 0 0 0

Gráficas

Temp. máximas Temp. mínimas Temp. medias Precipitaciones Rachas de viento máximas Velocidades máximas media en intervalos de 10 minutos

Datos horarios

Fecha y hora oficial Temperatura (ºC) Velocidad del viento (km/h) Dirección del viento Racha (km/h) Dirección de racha Precipitación (mm) Presión (hPa) Tendencia (hPa) Humedad (%)
2017-09-20 23:00:00 17.1 -- -- -- -- 0 964.3 0 37
2017-09-20 22:00:00 15.3 -- -- -- -- 0 964.3 -0.1 28
2017-09-20 21:00:00 16.9 -- -- -- -- 0 964.3 -0.2 28
2017-09-20 20:00:00 21.6 -- -- -- -- 0 964.3 -0.5 18
2017-09-20 19:00:00 23.8 -- -- -- -- 0 964.4 -1 14
2017-09-20 18:00:00 24.2 -- -- -- -- 0 964.5 -1.4 14
2017-09-20 17:00:00 24.1 -- -- -- -- 0 964.8 -1.8 14
2017-09-20 16:00:00 23.8 -- -- -- -- 0 965.4 -1.8 14
2017-09-20 15:00:00 23.1 -- -- -- -- 0 965.9 -1.9 18
2017-09-20 14:00:00 22.3 -- -- -- -- 0 966.6 -1.4 20
2017-09-20 13:00:00 20.7 -- -- -- -- 0 967.2 -0.7 24
2017-09-20 12:00:00 20.1 -- -- -- -- 0 967.8 0.1 26
2017-09-20 11:00:00 18.2 -- -- -- -- 0 968 0.3 29
2017-09-20 10:00:00 16.1 -- -- -- -- 0 967.9 0.4 28
2017-09-20 09:00:00 11.5 -- -- -- -- 0 967.7 0 37
2017-09-20 08:00:00 8.1 -- -- -- -- 0 967.7 -0.3 57
2017-09-20 07:00:00 8.4 -- -- -- -- 0 967.5 -0.3 63
2017-09-20 06:00:00 9.7 -- -- -- -- 0 967.7 -0.2 57
2017-09-20 05:00:00 12.3 -- -- -- -- 0 968 -0.3 50
2017-09-20 04:00:00 13.8 -- -- -- -- 0 967.8 -0.7 46
2017-09-20 03:00:00 14.4 -- -- -- -- 0 967.9 -0.7 48
2017-09-20 02:00:00 14.8 -- -- -- -- 0 968.3 -0.2 47
2017-09-20 01:00:00 15.1 -- -- -- -- 0 968.5 0.3 46
2017-09-20 00:00:00 15.4 -- -- -- -- 0 968.6 0.9 46
2017-09-19 23:00:00 16.1 -- -- -- -- 0 968.5 1.2 42
2017-09-19 22:00:00 15.8 -- -- -- -- 0 968.2 1.1 42
2017-09-19 21:00:00 17.8 -- -- -- -- 0 967.7 0.7 36
2017-09-19 20:00:00 19.3 -- -- -- -- 0 967.3 0.1 32
2017-09-19 19:00:00 21.3 -- -- -- -- 0 967.1 -0.2 27
2017-09-19 18:00:00 22.4 -- -- -- -- 0 967 -1 24
2017-09-19 17:00:00 22.4 -- -- -- -- 0 967.2 -1.3 21
2017-09-19 16:00:00 22.6 -- -- -- -- 0 967.3 -1.6 19
2017-09-19 15:00:00 21.8 -- -- -- -- 0 968 -1.2 24
2017-09-19 14:00:00 21 -- -- -- -- 0 968.5 -1 30
2017-09-19 13:00:00 19.8 -- -- -- -- 0 968.9 -0.5 38
2017-09-19 12:00:00 18.5 -- -- -- -- 0 969.2 0.1 42
2017-09-19 11:00:00 17.1 -- -- -- -- 0 969.5 0.8 46
2017-09-19 10:00:00 14.5 -- -- -- -- 0 969.4 0.9 54
2017-09-19 09:00:00 13.7 -- -- -- -- -- 969.1 1 64
2017-09-19 08:00:00 13.1 -- -- -- -- 0 968.7 0.9 74
2017-09-19 07:00:00 13.1 -- -- -- -- 0 968.5 0.5 78
2017-09-19 06:00:00 13.8 -- -- -- -- 0 968.1 0.1 78
2017-09-19 05:00:00 14.5 -- -- -- -- 0 967.8 0.2 74
2017-09-19 04:00:00 14.3 -- -- -- -- 0 968 0.5 73
2017-09-19 03:00:00 14.5 -- -- -- -- 0 968 0.3 68
2017-09-19 02:00:00 15.1 -- -- -- -- 0 967.6 0.3 65
2017-09-19 01:00:00 15.7 -- -- -- -- 0 967.5 0.8 60
2017-09-19 00:00:00 16.2 -- -- -- -- 0 967.7 1.6 56
2017-09-18 23:00:00 16.1 -- -- -- -- 0 967.3 2.1 58
2017-09-18 22:00:00 16.7 -- -- -- -- 0 966.7 2.3 55
2017-09-18 21:00:00 18.3 -- -- -- -- 0 966.1 2.2 49
2017-09-18 20:00:00 19.6 -- -- -- -- 0 965.2 1.7 44
2017-09-18 19:00:00 21.4 -- -- -- -- 0 964.4 0.6 38
2017-09-18 18:00:00 22.2 -- -- -- -- 0 963.9 0.1 35
2017-09-18 17:00:00 22.9 -- -- -- -- 0 963.5 -0.6 31
2017-09-18 16:00:00 22.5 -- -- -- -- 0 963.8 -0.5 32
2017-09-18 15:00:00 21.9 -- -- -- -- -- 963.8 -0.4 32
2017-09-18 14:00:00 20.9 -- -- -- -- 0 964.1 -0.6 34
2017-09-18 13:00:00 19.7 -- -- -- -- 0 964.3 -0.2 36
2017-09-18 12:00:00 18.4 -- -- -- -- 0 964.2 0.6 42
2017-09-18 11:00:00 15.9 -- -- -- -- 0 964.7 -- 50
2017-09-18 10:00:00 15.3 -- -- -- -- 0 964.5 -- 49
2017-09-18 09:00:00 13.5 -- -- -- -- -- 963.6 -- 52
2017-09-18 08:00:00 -- -- -- -- -- -- -- -- --
2017-09-18 07:00:00 -- -- -- -- -- -- -- -- --
2017-09-18 06:00:00 -- -- -- -- -- -- -- -- --
2017-09-18 05:00:00 -- -- -- -- -- -- -- -- --
2017-09-18 04:00:00 -- -- -- -- -- -- -- -- --
2017-09-18 03:00:00 -- -- -- -- -- -- -- -- --
2017-09-18 02:00:00 -- -- -- -- -- -- -- -- --
2017-09-18 01:00:00 -- -- -- -- -- -- -- -- --
2017-09-18 00:00:00 -- -- -- -- -- -- -- -- --
2017-09-17 23:00:00 -- -- -- -- -- -- -- -- --
2017-09-17 22:00:00 -- -- -- -- -- -- -- -- --
2017-09-17 21:00:00 -- -- -- -- -- -- -- -- --
2017-09-17 20:00:00 -- -- -- -- -- -- -- -- --
2017-09-17 19:00:00 -- -- -- -- -- -- -- -- --
2017-09-17 18:00:00 -- -- -- -- -- -- -- -- --
2017-09-17 17:00:00 -- -- -- -- -- -- -- -- --
2017-09-17 16:00:00 21.4 -- -- -- -- -- 962.9 -1.6 28
2017-09-17 15:00:00 22 -- -- -- -- 0 963.1 -2 27
2017-09-17 14:00:00 20.6 -- -- -- -- 0 964 -1.4 29
2017-09-17 13:00:00 19 -- -- -- -- 0 964.5 -0.8 33
2017-09-17 12:00:00 17.7 -- -- -- -- 0 965.1 0.4 37
2017-09-17 11:00:00 16.2 -- -- -- -- 0 965.4 -- 42
2017-09-17 10:00:00 13.2 -- -- -- -- 0 965.3 -- 50
2017-09-17 09:00:00 10 -- -- -- -- -- 964.7 -- 61
2017-09-17 08:00:00 -- -- -- -- -- -- -- -- --
2017-09-17 07:00:00 -- -- -- -- -- -- -- -- --
2017-09-17 06:00:00 -- -- -- -- -- -- -- -- --
2017-09-17 05:00:00 -- -- -- -- -- -- -- -- --
2017-09-17 04:00:00 -- -- -- -- -- -- -- -- --
2017-09-17 03:00:00 -- -- -- -- -- -- -- -- --
2017-09-17 02:00:00 -- -- -- -- -- -- -- -- --
2017-09-17 01:00:00 -- -- -- -- -- -- -- -- --
2017-09-17 00:00:00 -- -- -- -- -- -- -- -- --
2017-09-16 23:00:00 -- -- -- -- -- -- -- -- --
2017-09-16 22:00:00 -- -- -- -- -- -- -- -- --
2017-09-16 21:00:00 -- -- -- -- -- -- -- -- --
2017-09-16 20:00:00 -- -- -- -- -- -- -- -- --
2017-09-16 19:00:00 -- -- -- -- -- -- -- -- --
2017-09-16 18:00:00 19.2 -- -- -- -- -- 960.4 -0.5 31
2017-09-16 17:00:00 18.9 -- -- -- -- 0 960.4 -1.1 30
2017-09-16 16:00:00 18.7 -- -- -- -- 0 960.6 -1.4 32
2017-09-16 15:00:00 18.4 -- -- -- -- 0 960.9 -1.4 33
2017-09-16 14:00:00 17.9 -- -- -- -- 0 961.5 -1.2 36
2017-09-16 13:00:00 16.8 -- -- -- -- 0 962 -0.3 37
2017-09-16 12:00:00 15.7 -- -- -- -- 0 962.3 -- 44
2017-09-16 11:00:00 14.3 -- -- -- -- 0 962.7 -- 51
2017-09-16 10:00:00 12.7 -- -- -- -- -- 962.3 -- 61
2017-09-16 09:00:00 -- -- -- -- -- -- -- -- --
2017-09-16 08:00:00 -- -- -- -- -- -- -- -- --
2017-09-16 07:00:00 -- -- -- -- -- -- -- -- --
2017-09-16 06:00:00 -- -- -- -- -- -- -- -- --
2017-09-16 05:00:00 -- -- -- -- -- -- -- -- --
2017-09-16 04:00:00 -- -- -- -- -- -- -- -- --
2017-09-16 03:00:00 -- -- -- -- -- -- -- -- --
2017-09-16 02:00:00 -- -- -- -- -- -- -- -- --
2017-09-16 01:00:00 -- -- -- -- -- -- -- -- --
2017-09-16 00:00:00 -- -- -- -- -- -- -- -- --
2017-09-15 23:00:00 -- -- -- -- -- -- -- -- --
2017-09-15 22:00:00 -- -- -- -- -- -- -- -- --
2017-09-15 21:00:00 -- -- -- -- -- -- -- -- --
2017-09-15 20:00:00 -- -- -- -- -- -- -- -- --
2017-09-15 19:00:00 13.2 8 Sur 23 Sudoeste 0 960.6 -1.8 76
2017-09-15 18:00:00 13.1 8 Sudoeste 18 Sudoeste 0 960.9 -1.6 77
2017-09-15 17:00:00 10.6 9 Sur 15 Sudoeste 0.8 961.3 -1.6 87
2017-09-15 16:00:00 9.9 7 Oeste 25 Noroeste 1.6 962.4 -0.9 89
2017-09-15 15:00:00 10.6 15 Noroeste 25 Noroeste 0.2 962.5 -0.5 84
2017-09-15 14:00:00 11.7 12 Noroeste 25 Noroeste 1.2 962.9 -0.2 87
2017-09-15 13:00:00 11.6 11 Noroeste 31 Oeste 1.4 963.3 0.4 87
2017-09-15 12:00:00 12.7 12 Noroeste 29 Noroeste 0 963 0.3 70
2017-09-15 11:00:00 12.5 15 Noroeste 27 Noroeste 0 963.1 0.2 67
2017-09-15 10:00:00 13.1 14 Noroeste 30 Oeste 0 962.9 0 58
2017-09-15 09:00:00 13.4 14 Noroeste 26 Noroeste 0 962.7 -0.3 56
2017-09-15 08:00:00 13.5 12 Noroeste 25 Noroeste 0 962.9 -0.1 54
2017-09-15 07:00:00 13.7 9 Noroeste 23 Norte 0 962.9 -0.7 52
2017-09-15 06:00:00 14 13 Noroeste 25 Noroeste 0 963 -1 50
2017-09-15 05:00:00 14.5 10 Noroeste 16 Noroeste 0 963 -1.5 48
2017-09-15 04:00:00 14.6 12 Oeste 19 Oeste 0 963.6 -1.6 49
2017-09-15 03:00:00 14.6 9 Oeste 17 Sudoeste 0 964 -1.4 51
2017-09-15 02:00:00 14.1 9 Sudoeste 18 Sudoeste 0 964.5 -1.1 52
2017-09-15 01:00:00 14.6 8 Sudoeste 17 Noroeste 0 965.2 -0.5 52
2017-09-15 00:00:00 15.9 10 Oeste 30 Oeste 0 965.4 0 46
2017-09-14 23:00:00 16.5 14 Oeste 29 Oeste 0 965.6 0.8 45
2017-09-14 22:00:00 17 14 Oeste 33 Oeste 0 965.7 1.3 46
2017-09-14 21:00:00 17.6 16 Noroeste 33 Noroeste 0 965.4 1.4 47
2017-09-14 20:00:00 18.8 17 Noroeste 36 Noroeste 0 964.8 0.7 42
2017-09-14 19:00:00 20.2 21 Noroeste 45 Noroeste 0 964.4 0 40
2017-09-14 18:00:00 22.8 21 Noroeste 42 Noroeste 0 964 -0.6 37
2017-09-14 17:00:00 24.3 23 Noroeste 44 Noroeste 0 964.1 -1.1 34
2017-09-14 16:00:00 25 25 Noroeste 47 Norte 0 964.4 -1 37
2017-09-14 15:00:00 25.6 24 Noroeste 46 Noroeste 0 964.6 -1.1 37
2017-09-14 14:00:00 25.4 23 Noroeste 46 Noroeste 0 965.2 -0.3 38
2017-09-14 13:00:00 24.7 24 Noroeste 50 Oeste 0 965.4 0.9 41
2017-09-14 12:00:00 23.5 24 Noroeste 39 Noroeste 0 965.7 2 45
2017-09-14 11:00:00 21.4 13 Norte 28 Norte 0 965.5 1.9 59
2017-09-14 10:00:00 20.1 11 Norte 18 Noroeste 0 964.5 1.1 70
2017-09-14 09:00:00 17.3 0 Calma 5 Norte 0 963.7 0.7 68
2017-09-14 08:00:00 16 4 Norte 10 Norte 0 963.6 0.7 67
2017-09-14 07:00:00 17 4 Oeste 13 Sudoeste 0 963.4 0.2 60
2017-09-14 06:00:00 18.1 9 Oeste 13 Oeste 0 963 -0.6 59
2017-09-14 05:00:00 18.6 4 Noroeste 10 Sudoeste 0 962.9 -1.1 59
2017-09-14 04:00:00 19.5 4 Sudoeste 14 Sudoeste 0 963.2 -1.3 58
2017-09-14 03:00:00 20.4 5 Sudoeste 9 Sur 0 963.6 -1.3 56
2017-09-14 02:00:00 20.9 2 Sudoeste 14 Sur 0 964 -1.1 56
2017-09-14 01:00:00 21.7 6 Sur 20 Sur 0 964.5 -0.6 58
2017-09-14 00:00:00 22.7 11 Sur 23 Sur 0 964.9 0.1 55
2017-09-13 23:00:00 23.4 9 Sur 21 Sur 0 965.1 0.7 53
2017-09-13 22:00:00 24.1 9 Sur 21 Sur 0 965.1 0.4 49
2017-09-13 21:00:00 25.6 8 Sur 22 Sur 0 964.8 -0.3 41
2017-09-13 20:00:00 27.6 4 Nordeste 22 Nordeste 0 964.4 -1.4 31
2017-09-13 19:00:00 29.7 6 Nordeste 21 Nordeste 0 964.7 -1.7 26
2017-09-13 18:00:00 30.1 8 Nordeste 26 Norte 0 965.1 -2.3 23
2017-09-13 17:00:00 29.3 14 Norte 25 Norte 0 965.8 -2.4 24
2017-09-13 16:00:00 29.8 7 Nordeste 24 Norte 0 966.4 -2.7 23
2017-09-13 15:00:00 28.7 6 Norte 24 Norte 0 967.4 -2.1 25
2017-09-13 14:00:00 26.9 10 Norte 21 Nordeste 0 968.2 -1.4 28
2017-09-13 13:00:00 25.7 4 Norte 14 Norte 0 969.1 -0.4 29
2017-09-13 12:00:00 24.1 3 Norte 14 Este 0 969.5 0.2 32
2017-09-13 11:00:00 22.4 2 Sudoeste 14 Sur 0 969.6 0.6 38
2017-09-13 10:00:00 19.8 8 Sur 17 Sur 0 969.5 1 45
2017-09-13 09:00:00 15.9 13 Sudoeste 23 Sudoeste 0 969.3 1.1 55
2017-09-13 08:00:00 14 12 Sudoeste 25 Sudoeste 0 969 0.8 61
2017-09-13 07:00:00 14 12 Sudoeste 19 Sudoeste 0 968.5 0.2 61
2017-09-13 06:00:00 14.4 9 Sudoeste 18 Sudoeste 0 968.2 -0.2 60
2017-09-13 05:00:00 14.8 11 Sudoeste 20 Sudoeste 0 968.2 0 59
2017-09-13 04:00:00 15.2 14 Sudoeste 22 Sudoeste 0 968.3 0.3 57
2017-09-13 03:00:00 15.6 9 Sudoeste 19 Sudoeste 0 968.4 0.6 56
2017-09-13 02:00:00 16.1 12 Sudoeste 19 Sudoeste 0 968.2 0.6 54
2017-09-13 01:00:00 16.4 14 Sudoeste 21 Sudoeste 0 968 0.8 53
2017-09-13 00:00:00 17.3 8 Oeste 19 Sudoeste 0 967.8 1.3 50
2017-09-12 23:00:00 16.8 6 Sudoeste 13 Sudoeste 0 967.6 2 50
2017-09-12 22:00:00 17.5 8 Sudoeste 11 Sudoeste 0 967.2 2.1 48
2017-09-12 21:00:00 19.7 3 Oeste 19 Noroeste 0 966.5 1.9 41
2017-09-12 20:00:00 21.6 10 Noroeste 30 Norte 0 965.6 0.8 36
2017-09-12 19:00:00 23.2 18 Noroeste 31 Noroeste 0 965.1 0.2 33
2017-09-12 18:00:00 23.9 17 Noroeste 34 Noroeste 0 964.6 -0.6 31
2017-09-12 17:00:00 24.1 16 Noroeste 39 Norte 0 964.8 -0.5 30
2017-09-12 16:00:00 23.6 20 Noroeste 40 Noroeste 0 964.9 -0.5 31
2017-09-12 15:00:00 22.8 23 Noroeste 43 Norte 0 965.2 -0.4 33
2017-09-12 14:00:00 21.1 20 Noroeste 41 Noroeste 0 965.3 0.1 39
2017-09-12 13:00:00 20.6 15 Noroeste 44 Oeste 0 965.4 0.9 43
2017-09-12 12:00:00 18.8 20 Noroeste 35 Noroeste 0 965.6 2 49
2017-09-12 11:00:00 17.3 15 Noroeste 31 Noroeste 0 965.2 2.2 55
2017-09-12 10:00:00 16.7 20 Noroeste 33 Noroeste 0 964.5 1.7 58
2017-09-12 09:00:00 16.5 14 Oeste 32 Oeste 0 963.6 1.1 57
2017-09-12 08:00:00 16 15 Oeste 28 Oeste 0 963 0.4 60
2017-09-12 07:00:00 16.4 11 Oeste 26 Oeste 0 962.8 0.5 60
2017-09-12 06:00:00 16.5 15 Oeste 32 Oeste 0 962.5 0.3 60
2017-09-12 05:00:00 16.8 14 Oeste 25 Oeste 0 962.6 0.9 60
2017-09-12 04:00:00 16.8 9 Oeste 24 Oeste 0 962.3 0.9 62
2017-09-12 03:00:00 16.1 9 Oeste 17 Oeste 0 962.2 1.2 65
2017-09-12 02:00:00 16.3 8 Oeste 22 Noroeste 0 961.7 1.3 63
2017-09-12 01:00:00 17.4 13 Noroeste 27 Oeste 0 961.4 1.2 59
2017-09-12 00:00:00 18.3 15 Noroeste 27 Oeste 0 961 1.8 56
2017-09-11 23:00:00 19.5 12 Oeste 29 Noroeste 0 960.4 1.6 53
2017-09-11 22:00:00 21 11 Noroeste 25 Noroeste 0 960.2 1.8 51
2017-09-11 21:00:00 22.3 4 Norte 21 Noroeste 0 959.2 1 47
2017-09-11 20:00:00 24.1 9 Noroeste 35 Norte 0 958.8 0.8 43
2017-09-11 19:00:00 25.7 17 Norte 30 Norte 0 958.4 0.1 39
2017-09-11 18:00:00 26.3 10 Norte 36 Norte 0 958.2 -0.6 38
2017-09-11 17:00:00 27.6 20 Norte 38 Norte 0 958 -1.2 33
2017-09-11 16:00:00 28 19 Norte 36 Noroeste 0 958.3 -1.1 31
2017-09-11 15:00:00 27.8 17 Noroeste 36 Noroeste 0 958.8 -0.8 31
2017-09-11 14:00:00 27 21 Noroeste 48 Noroeste 0 959.2 -0.4 32
2017-09-11 13:00:00 25.7 20 Noroeste -- -- -- 959.4 0 34
2017-09-11 12:00:00 25.7 19 Oeste 41 Oeste 0 959.6 0.3 35
2017-09-11 11:00:00 23.9 24 Oeste 43 Oeste 0 959.6 0.5 38
2017-09-11 10:00:00 22.4 20 Oeste 38 Oeste 0 959.4 0.5 41
2017-09-11 09:00:00 19 9 Oeste 22 Sudoeste 0 959.3 0.2 40
2017-09-11 08:00:00 15.8 9 Sudoeste 14 Sudoeste 0 959.1 -0.2 44
2017-09-11 07:00:00 15.8 10 Sudoeste 15 Sudoeste 0 958.9 -0.9 42
2017-09-11 06:00:00 14.7 0 Calma 7 Nordeste 0 959.1 -0.9 52
2017-09-11 05:00:00 16.5 4 Oeste 11 Sudoeste 0 959.3 -1 47
2017-09-11 04:00:00 18.9 3 Oeste 33 Oeste 0 959.8 -0.9 49
2017-09-11 03:00:00 18.4 10 Sudoeste 22 Sudoeste 0 960 -0.6 39
2017-09-11 02:00:00 16.8 7 Sudoeste 10 Sudoeste 0 960.3 -0.5 47
2017-09-11 01:00:00 18.2 5 Oeste 13 Sudoeste 0 960.7 0.1 42
2017-09-11 00:00:00 18.4 8 Oeste 20 Noroeste 0 960.6 0.4 41
2017-09-10 23:00:00 18.3 9 Noroeste 18 Noroeste 0 960.8 1.3 40
2017-09-10 22:00:00 18.6 8 Oeste 20 Noroeste 0 960.6 1.1 38
2017-09-10 21:00:00 18.7 10 Oeste 35 Noroeste 0 960.2 1.1 36
2017-09-10 20:00:00 19.8 24 Noroeste 48 Noroeste 0 959.5 0.5 34
2017-09-10 19:00:00 21 28 Noroeste 57 Noroeste 0 959.5 0.2 31
2017-09-10 18:00:00 21.3 34 Noroeste 66 Noroeste 0 959.1 -0.3 30
2017-09-10 17:00:00 21.7 32 Noroeste 62 Noroeste 0 959 -0.4 30
2017-09-10 16:00:00 21.7 28 Noroeste 65 Oeste 0 959.3 -0.1 32
2017-09-10 15:00:00 21.1 34 Noroeste 64 Oeste 0 959.4 0 33
2017-09-10 14:00:00 20.6 35 Noroeste 63 Noroeste 0 959.4 0.2 32
2017-09-10 13:00:00 19.2 35 Oeste 68 Oeste 0 959.4 1.2 39
2017-09-10 12:00:00 18.3 34 Noroeste 65 Oeste 0 959.4 1.2 42
2017-09-10 11:00:00 16.6 31 Noroeste 65 Noroeste 0 959.2 1.3 47
2017-09-10 10:00:00 15.6 31 Oeste 71 Oeste 0 958.2 1.1 50
2017-09-10 09:00:00 14 27 Oeste 51 Oeste 0 958.2 1.6 56
2017-09-10 08:00:00 12.8 23 Oeste 47 Noroeste 0 957.9 1.2 60
2017-09-10 07:00:00 12.7 27 Oeste 49 Noroeste 0 957.1 0.1 60
2017-09-10 06:00:00 12.9 27 Oeste 54 Oeste 0 956.6 -0.4 58
2017-09-10 05:00:00 13 28 Oeste 54 Oeste 0 956.7 -0.3 58
2017-09-10 04:00:00 13.2 17 Oeste 45 Oeste 0 957 -0.2 56
2017-09-10 03:00:00 13.4 23 Oeste 41 Oeste 0 957 -0.1 59
2017-09-10 02:00:00 13.6 21 Oeste 38 Oeste 0 957 0.3 58
2017-09-10 01:00:00 13.7 15 Oeste 32 Oeste 0 957.2 1.3 59
2017-09-10 00:00:00 14.2 10 Oeste 30 Noroeste 0 957.1 2.2 57
2017-09-09 23:00:00 15.6 13 Oeste 39 Oeste 0 956.7 2.1 51
2017-09-09 22:00:00 16.2 15 Oeste 32 Oeste 0 955.9 1.1 59
2017-09-09 21:00:00 15.6 15 Oeste 29 Oeste 0 954.9 0.5 63
2017-09-09 20:00:00 15.4 15 Sudoeste 26 Sudoeste 0 954.6 0.4 64
2017-09-09 19:00:00 15 12 Sudoeste 55 Oeste 0 954.8 0.3 75
2017-09-09 18:00:00 19.5 23 Noroeste 43 Oeste 0 954.4 -1.1 38
2017-09-09 17:00:00 20 21 Noroeste 43 Oeste 0 954.2 -1.5 44
2017-09-09 16:00:00 19 20 Noroeste 47 Oeste 0 954.5 -1 49
2017-09-09 15:00:00 17.1 19 Oeste 41 Noroeste 0 955.5 0.1 59
2017-09-09 14:00:00 17.6 24 Noroeste 52 Noroeste 0 955.7 0.7 59
2017-09-09 13:00:00 19 27 Noroeste 50 Noroeste 0 955.5 0.3 60
2017-09-09 12:00:00 19.6 19 Noroeste 34 Noroeste 0 955.4 0.4 55
2017-09-09 11:00:00 19.4 13 Oeste 36 Oeste 0 955 0.4 54
2017-09-09 10:00:00 18.8 12 Oeste 26 Noroeste 0 955.2 1.6 56
2017-09-09 09:00:00 17.7 12 Oeste 24 Oeste 0 955 1.8 54
2017-09-09 08:00:00 16.1 6 Noroeste 18 Norte 0 954.6 1.2 67
2017-09-09 07:00:00 15.6 4 Sudoeste 13 Norte 0 953.6 0.1 53
2017-09-09 06:00:00 16.7 3 Sur 9 Oeste 0 953.2 -1.3 45
2017-09-09 05:00:00 18.9 8 Oeste 15 Sudoeste 0 953.4 -2.1 42
2017-09-09 04:00:00 19.3 9 Sur 19 Sudoeste 0 953.5 -2.6 57
2017-09-09 03:00:00 18.5 13 Sudoeste 22 Sudoeste 0 954.5 -1.5 47
2017-09-09 02:00:00 19.1 8 Sudoeste 18 Sudoeste 0 955.5 -1.3 58
2017-09-09 01:00:00 19.7 8 Sudoeste 13 Oeste 0 956.1 -0.9 69
2017-09-09 00:00:00 22.4 5 Sur 20 Sur 0 956 -1 65
2017-09-08 23:00:00 22.7 6 Sur 19 Sur 0 956.8 -0.3 64
2017-09-08 22:00:00 23.8 10 Sur 32 Sur 0 957 -0.5 58
2017-09-08 21:00:00 22.9 4 Sur 9 Sudeste 0 957 -1 27
2017-09-08 20:00:00 26.1 2 Nordeste 12 Nordeste 0 957.1 -1.8 23
2017-09-08 19:00:00 27.5 6 Norte 14 Norte 0 957.5 -2.4 19
2017-09-08 18:00:00 27.5 5 Norte 17 Norte 0 958 -2.8 20
2017-09-08 17:00:00 27.1 5 Nordeste 22 Norte 0 958.9 -2.7 22
2017-09-08 16:00:00 26.2 6 Nordeste 16 Este 0 959.9 -2.5 24
2017-09-08 15:00:00 24.5 6 Norte 21 Norte 0 960.8 -2.2 28
2017-09-08 14:00:00 23.4 6 Norte 16 Norte 0 961.6 -1.7 34
2017-09-08 13:00:00 21.5 6 Nordeste 15 Norte 0 962.4 -1 41
2017-09-08 12:00:00 20 4 Norte 12 Este 0 963 -0.4 43
2017-09-08 11:00:00 18.5 2 Noroeste 8 Norte 0 963.3 0.2 51
2017-09-08 10:00:00 16.4 2 Este 7 Sudeste 0 963.4 0.3 58
2017-09-08 09:00:00 12.4 0 Calma 5 Oeste 0 963.4 0.2 78
2017-09-08 08:00:00 10.7 3 Oeste 6 Oeste 0 963.1 -0.3 81
2017-09-08 07:00:00 12.3 0 Calma 10 Este 0 963.1 -0.4 70
2017-09-08 06:00:00 12.6 5 Este 9 Sudeste 0 963.2 -0.5 68
2017-09-08 05:00:00 13.3 2 Este 8 Nordeste 0 963.4 -0.6 61
2017-09-08 04:00:00 15.8 8 Oeste 14 Oeste 0 963.5 -0.8 50
2017-09-08 03:00:00 16.8 6 Sudoeste 16 Sudoeste 0 963.7 -0.8 50
2017-09-08 02:00:00 17.7 8 Sudoeste 24 Sudoeste 0 964 -0.5 50
2017-09-08 01:00:00 18.7 11 Sudoeste 28 Oeste 0 964.3 0 47
2017-09-08 00:00:00 19.2 17 Sudoeste 28 Sudoeste 0 964.5 1 46
2017-09-07 23:00:00 19.9 7 Sudoeste 18 Sudoeste 0 964.5 1.4 35
2017-09-07 22:00:00 20.9 6 Noroeste 26 Oeste 0 964.3 1.4 34
2017-09-07 21:00:00 22 8 Noroeste 24 Noroeste 0 963.5 0.6 32
2017-09-07 20:00:00 23.8 8 Noroeste 24 Norte 0 963.1 -0.3 26
2017-09-07 19:00:00 25.1 14 Noroeste 33 Noroeste 0 962.9 -1 27
2017-09-07 18:00:00 26 15 Noroeste 32 Noroeste 0 962.9 -2 22
2017-09-07 17:00:00 26 16 Noroeste 32 Noroeste 0 963.4 -2.3 22
2017-09-07 16:00:00 25.6 13 Noroeste 26 Noroeste 0 963.9 -2.7 25
2017-09-07 15:00:00 24.3 13 Noroeste 30 Oeste 0 964.9 -2.3 28
2017-09-07 14:00:00 22.9 13 Noroeste 31 Noroeste 0 965.7 -1.8 32
2017-09-07 13:00:00 21.3 15 Noroeste 33 Noroeste 0 966.6 -0.7 36
2017-09-07 12:00:00 19.9 15 Noroeste 31 Noroeste 0 967.2 0 41
2017-09-07 11:00:00 18.5 17 Noroeste 36 Noroeste 0 967.5 0.5 47
2017-09-07 10:00:00 16.7 15 Oeste 28 Oeste 0 967.3 0.6 53
2017-09-07 09:00:00 14.9 10 Oeste 20 Sudoeste 0 967.2 0 61
2017-09-07 08:00:00 13.7 7 Sudoeste 19 Oeste 0 967 -0.7 64
2017-09-07 07:00:00 14.2 11 Sudoeste 19 Sudoeste 0 966.7 -1 63
2017-09-07 06:00:00 14.5 10 Sudoeste 19 Sudoeste 0 967.2 -0.8 62
2017-09-07 05:00:00 14.9 7 Sudoeste 16 Sudoeste 0 967.7 -0.9 61
2017-09-07 04:00:00 15.5 9 Sudoeste 16 Sudoeste 0 967.7 -0.9 60
2017-09-07 03:00:00 15.9 9 Oeste 19 Oeste 0 968 -0.5 61
2017-09-07 02:00:00 16.7 8 Oeste 19 Oeste 0 968.6 0.3 58
2017-09-07 01:00:00 17.6 13 Noroeste 29 Oeste 0 968.6 0.7 55
2017-09-07 00:00:00 19 9 Oeste 19 Oeste 0 968.5 1.6 53
2017-09-06 23:00:00 19.9 9 Noroeste 17 Noroeste 0 968.3 1.9 52
2017-09-06 22:00:00 21.2 8 Noroeste 26 Noroeste 0 967.9 1.4 50
2017-09-06 21:00:00 22.7 16 Noroeste 35 Noroeste 0 966.9 0.6 45
2017-09-06 20:00:00 25.2 19 Noroeste 35 Noroeste 0 966.4 -0.5 38
2017-09-06 19:00:00 27.3 17 Noroeste 32 Noroeste 0 966.5 -0.9 33
2017-09-06 18:00:00 28.4 15 Noroeste 28 Noroeste 0 966.3 -1.8 32
2017-09-06 17:00:00 28.7 10 Noroeste 27 Noroeste 0 966.9 -1.9 32
2017-09-06 16:00:00 28.4 11 Noroeste 27 Noroeste 0 967.4 -2 31
2017-09-06 15:00:00 27.3 13 Norte 25 Norte 0 968.1 -1.9 33
2017-09-06 14:00:00 26.7 10 Noroeste 26 Oeste 0 968.8 -1.4 37
2017-09-06 13:00:00 25.6 6 Noroeste 21 Oeste 0 969.4 -0.9 40
2017-09-06 12:00:00 24 9 Oeste 24 Noroeste 0 970 -0.2 45
2017-09-06 11:00:00 22.7 8 Noroeste 24 Noroeste 0 970.2 0.5 48
2017-09-06 10:00:00 20.6 12 Oeste 21 Oeste 0 970.3 0.9 56
2017-09-06 09:00:00 19.3 6 Sudoeste 18 Sudoeste 0 970.2 1 62
2017-09-06 08:00:00 18.5 9 Sudoeste 17 Sudoeste 0 969.7 0.5 66
2017-09-06 07:00:00 18.6 10 Sudoeste 20 Sudoeste 0 969.4 0.2 65
2017-09-06 06:00:00 19.2 10 Sudoeste 21 Sudoeste 0 969.2 0 62
2017-09-06 05:00:00 19.6 9 Sudoeste 23 Sudoeste 0 969.2 0.4 62
2017-09-06 04:00:00 20.2 9 Oeste 19 Sudoeste 0 969.2 0.6 61
2017-09-06 03:00:00 20.6 5 Oeste 14 Oeste 0 969.2 1 63
2017-09-06 02:00:00 21.9 0 Calma 13 Oeste 0 968.8 0.9 56
2017-09-06 01:00:00 23.2 6 Oeste 21 Sudoeste 0 968.6 0.9 55
2017-09-06 00:00:00 23.9 8 Oeste 20 Sudoeste 0 968.2 1.4 53
2017-09-05 23:00:00 24.9 7 Sur 14 Sur 0 967.9 1.5 54
2017-09-05 22:00:00 25.2 8 Oeste 12 Noroeste 0 967.7 1.4 45
2017-09-05 21:00:00 27.1 4 Oeste 12 Norte 0 966.8 0.6 39
2017-09-05 20:00:00 29.4 9 Norte 20 Norte 0 966.4 -0.1 33
2017-09-05 19:00:00 30.2 9 Norte 21 Norte 0 966.3 -0.7 31
2017-09-05 18:00:00 30.6 8 Noroeste 28 Norte 0 966.2 -1.3 31
2017-09-05 17:00:00 30.6 8 Norte 24 Nordeste 0 966.5 -1.4 32
2017-09-05 16:00:00 30 8 Norte 26 Norte 0 967 -1.4 33
2017-09-05 15:00:00 28.8 9 Norte 21 Norte 0 967.5 -1.1 34
2017-09-05 14:00:00 28.1 9 Norte 20 Nordeste 0 967.9 -0.8 36
2017-09-05 13:00:00 27.5 5 Norte 19 Norte 0 968.4 -0.1 39
2017-09-05 12:00:00 26.5 4 Norte 10 Nordeste 0 968.6 0.2 40
2017-09-05 11:00:00 24.9 3 Este 8 Este 0 968.7 0.6 47
2017-09-05 10:00:00 22.6 2 Sur 11 Sudoeste 0 968.5 0.9 55
2017-09-05 09:00:00 19.3 8 Sudoeste 14 Sudoeste 0 968.4 1 67
2017-09-05 08:00:00 17.8 8 Sudoeste 14 Sudoeste 0 968.1 1 77
2017-09-05 07:00:00 18.3 8 Sudoeste 15 Sudoeste 0 967.6 0.6 76
2017-09-05 06:00:00 18.7 11 Sudoeste 19 Sudoeste 0 967.4 0.5 69
2017-09-05 05:00:00 19.2 15 Sudoeste 23 Sudoeste 0 967.1 0.1 67
2017-09-05 04:00:00 20.1 7 Sur 19 Sudoeste 0 967 0.2 68
2017-09-05 03:00:00 21 12 Sur 24 Sur 0 966.9 0.2 70
2017-09-05 02:00:00 21.3 9 Sur 32 Sur 0 967 0.8 68
2017-09-05 01:00:00 21.6 15 Sur 35 Sur 0 966.8 1.2 68
2017-09-05 00:00:00 22.2 13 Sur 32 Sur 0 966.7 1.8 63
2017-09-04 23:00:00 22.7 15 Sur 35 Sur 0 966.2 2.1 61
2017-09-04 22:00:00 23.2 14 Sur 40 Sudoeste 0 965.6 1.9 58
2017-09-04 21:00:00 24.4 13 Sur 26 Sudeste 0 964.9 1.6 54
2017-09-04 20:00:00 27.3 4 Norte 14 Oeste 0 964.1 0.9 32
2017-09-04 19:00:00 27.8 4 Norte 17 Norte 0 963.7 0.6 31
2017-09-04 18:00:00 27.7 7 Norte 19 Noroeste 0 963.3 -0.1 31
2017-09-04 17:00:00 27.9 10 Noroeste 22 Norte 0 963.2 0.1 33
2017-09-04 16:00:00 27.4 6 Norte 21 Noroeste 0 963.1 0.1 33
2017-09-04 15:00:00 26.7 11 Noroeste 28 Norte 0 963.4 0.5 34
2017-09-04 14:00:00 25.8 13 Noroeste 28 Noroeste 0 963.1 0.5 37
2017-09-04 13:00:00 25 13 Noroeste 25 Noroeste 0 963 1.5 38
2017-09-04 12:00:00 23.5 13 Noroeste 30 Noroeste 0 962.9 2 46
2017-09-04 11:00:00 22.2 15 Noroeste 27 Noroeste 0 962.6 2.9 48
2017-09-04 10:00:00 21.1 12 Noroeste 20 Noroeste 0 961.5 2.5 47
2017-09-04 09:00:00 17.7 4 Oeste 16 Norte 0 960.9 2.1 51
2017-09-04 08:00:00 18.1 6 Oeste 19 Sudoeste 0 959.7 1 48
2017-09-04 07:00:00 18.5 10 Oeste 15 Oeste 0 959 0.1 46
2017-09-04 06:00:00 17.9 5 Noroeste 10 Oeste 0 958.8 -0.7 51
2017-09-04 05:00:00 18 8 Oeste 12 Oeste 0 958.7 -1.3 50
2017-09-04 04:00:00 18.4 4 Sur 11 Sudeste 0 958.9 -1.8 48
2017-09-04 03:00:00 19.1 3 Oeste 11 Sur 0 959.5 -1.7 45
2017-09-04 02:00:00 19.4 4 Sudoeste 10 Sur 0 960 -1.1 44
2017-09-04 01:00:00 20.4 5 Sur 8 Sur 0 960.7 0.2 41
2017-09-04 00:00:00 21.2 0 Calma 11 Norte 0 961.2 1.4 40
2017-09-03 23:00:00 21.7 3 Noroeste 7 Sur 0 961.1 1.2 39
2017-09-03 22:00:00 21.3 5 Oeste 11 Oeste 0 960.5 0.3 40
2017-09-03 21:00:00 23.3 2 Noroeste 6 Oeste 0 959.8 -0.5 35
2017-09-03 20:00:00 25.6 3 Nordeste 12 Noroeste 0 959.9 -0.8 26
2017-09-03 19:00:00 27.4 8 Noroeste 16 Norte 0 960.2 -0.8 22
2017-09-03 18:00:00 27.2 7 Norte 19 Norte 0 960.3 -1.2 23
2017-09-03 17:00:00 26.8 10 Norte 24 Noroeste 0 960.7 -1.5 23
2017-09-03 16:00:00 26.4 11 Norte 22 Norte 0 961 -2.3 23
2017-09-03 15:00:00 25.9 6 Norte 14 Sudeste 0 961.5 -1.8 26
2017-09-03 14:00:00 24.1 5 Nordeste 16 Norte 0 962.2 -1.2 34
2017-09-03 13:00:00 22.2 11 Norte 19 Norte 0 963.3 -0.6 37
2017-09-03 12:00:00 22.7 7 Noroeste 12 Noroeste 0 963.3 -0.7 29
2017-09-03 11:00:00 19.4 5 Sur 8 Sur 0 963.4 -0.6 38
2017-09-03 10:00:00 17.9 5 Sur 18 Sudoeste 0 963.9 -0.1 43
2017-09-03 09:00:00 15.1 9 Sudoeste 22 Sudoeste 0 964 -0.3 55
2017-09-03 08:00:00 13.9 11 Sudoeste 22 Sudoeste 0 964 -0.9 59
2017-09-03 07:00:00 13.9 14 Sudoeste 20 Sudoeste 0 964 -1.3 59
2017-09-03 06:00:00 13.5 11 Sudoeste 17 Sudoeste 0 964.3 -1.5 62
2017-09-03 05:00:00 13.8 12 Sudoeste 19 Sudoeste 0 964.9 -1.4 61
2017-09-03 04:00:00 14.2 8 Sudoeste 17 Sudoeste 0 965.3 -1.4 60
2017-09-03 03:00:00 15.1 8 Sudoeste 16 Sudoeste 0 965.8 -1.2 59
2017-09-03 02:00:00 15.2 6 Sudoeste 17 Sudoeste 0 966.3 -0.5 58
2017-09-03 01:00:00 15.6 11 Sudoeste 18 Sudoeste 0 966.7 0 58
2017-09-03 00:00:00 16.1 5 Oeste 11 Sudoeste 0 967 0.7 57
2017-09-02 23:00:00 17.5 7 Sudoeste 14 Oeste 0 966.8 0.8 51
2017-09-02 22:00:00 18.5 4 Sudoeste 8 Sudoeste 0 966.7 0.6 47
2017-09-02 21:00:00 20.5 0 Calma 22 Noroeste 0 966.3 0 41
2017-09-02 20:00:00 23.3 8 Noroeste 32 Oeste 0 966 -0.6 32
2017-09-02 19:00:00 24.2 13 Noroeste 31 Noroeste 0 966.1 -1.3 30
2017-09-02 18:00:00 24.3 16 Noroeste 36 Noroeste 0 966.3 -1.8 28
2017-09-02 17:00:00 24.3 20 Noroeste 39 Noroeste 0 966.6 -1.8 28
2017-09-02 16:00:00 23.8 22 Noroeste 40 Noroeste 0 967.4 -1.7 30
2017-09-02 15:00:00 23.2 18 Noroeste 39 Noroeste 0 968.1 -1.7 30
2017-09-02 14:00:00 22.1 20 Noroeste 45 Noroeste 0 968.4 -1.7 31
2017-09-02 13:00:00 21 20 Noroeste 44 Noroeste 0 969.1 -0.9 33
2017-09-02 12:00:00 19.7 23 Noroeste 43 Noroeste 0 969.8 0.3 37
2017-09-02 11:00:00 18.6 17 Noroeste 34 Noroeste 0 970.1 1 41
2017-09-02 10:00:00 16.9 17 Oeste 35 Oeste 0 970 1.3 48
2017-09-02 09:00:00 14.8 14 Oeste 33 Oeste 0 969.5 1 58
2017-09-02 08:00:00 13.6 17 Oeste 35 Oeste 0 969.1 0.7 62
2017-09-02 07:00:00 13.6 13 Oeste 26 Oeste 0 968.7 -0.2 64
2017-09-02 06:00:00 13.8 12 Sudoeste 33 Oeste 0 968.5 -0.7 64
2017-09-02 05:00:00 14 14 Oeste 40 Oeste 0 968.4 -0.9 64
2017-09-02 04:00:00 15 21 Oeste 40 Sudoeste 0 968.9 -0.1 58
2017-09-02 03:00:00 15.6 18 Oeste 36 Oeste 0 969.2 0.4 56
2017-09-02 02:00:00 16.1 19 Oeste 37 Oeste 0 969.3 1.1 54
2017-09-02 01:00:00 16.4 16 Oeste 38 Oeste 0 969 1.4 54
2017-09-02 00:00:00 17.2 19 Oeste 36 Oeste 0 968.8 2.3 50
2017-09-01 23:00:00 17.9 14 Oeste 33 Noroeste 0 968.2 2.3 49
2017-09-01 22:00:00 18.9 12 Noroeste 32 Noroeste 0 967.6 2 44
2017-09-01 21:00:00 20.3 16 Noroeste 35 Noroeste 0 966.5 1.3 37
2017-09-01 20:00:00 21.9 19 Noroeste 33 Noroeste 0 965.9 0.4 32
2017-09-01 19:00:00 23.2 18 Noroeste 37 Noroeste 0 965.6 -0.2 33
2017-09-01 18:00:00 23.8 18 Noroeste 33 Noroeste 0 965.2 -1.1 31
2017-09-01 17:00:00 23.8 22 Noroeste 35 Noroeste 0 965.5 -1.5 31
2017-09-01 16:00:00 23.9 17 Noroeste 33 Noroeste 0 965.8 -1.7 30
2017-09-01 15:00:00 23.2 17 Noroeste 34 Noroeste 0 966.3 -1.4 29
2017-09-01 14:00:00 22.6 15 Noroeste 33 Norte 0 967 -0.9 30
2017-09-01 13:00:00 21.9 17 Noroeste 28 Noroeste 0 967.5 -0.1 26
2017-09-01 12:00:00 20.6 14 Noroeste 27 Noroeste 0 967.7 0.3 38
2017-09-01 11:00:00 19.3 12 Oeste 28 Noroeste 0 967.9 0.9 41
2017-09-01 10:00:00 17.9 12 Oeste 21 Oeste 0 967.6 0.7 47
2017-09-01 09:00:00 17 11 Oeste 21 Oeste 0 967.4 0.5 52
2017-09-01 08:00:00 16.5 8 Oeste 21 Oeste 0 967 0.1 54
2017-09-01 07:00:00 16.6 10 Oeste 17 Oeste 0 966.9 -0.1 56
2017-09-01 06:00:00 16.8 7 Oeste 15 Oeste 0 966.9 0 59
2017-09-01 05:00:00 16.7 8 Oeste 19 Sudoeste 0 966.9 0 60
2017-09-01 04:00:00 16.2 11 Sudoeste 17 Sudoeste 0 967 0 64
2017-09-01 03:00:00 15.9 6 Oeste 15 Oeste 0 966.9 0.1 69
2017-09-01 02:00:00 16.9 7 Oeste 17 Oeste 0 966.9 0.6 61
2017-09-01 01:00:00 18.3 8 Oeste 15 Oeste 0 967 1 56
2017-09-01 00:00:00 18.5 7 Oeste 19 Noroeste 0 966.8 1.3 57
2017-08-31 23:00:00 19.1 8 Oeste 13 Oeste 0 966.3 1.2 59
2017-08-31 22:00:00 20 5 Oeste 9 Noroeste 0 966 1.5 58
2017-08-31 21:00:00 21.5 3 Norte 14 Noroeste 0 965.5 1.2 52
2017-08-31 20:00:00 23.1 8 Noroeste 20 Noroeste 0 965.1 0.4 44
2017-08-31 19:00:00 23.6 5 Norte 22 Noroeste 0 964.5 -0.6 42
2017-08-31 18:00:00 22.9 13 Noroeste 23 Noroeste 0 964.3 -1.5 44
2017-08-31 17:00:00 23.2 8 Noroeste 22 Norte 0 964.7 -1.2 43
2017-08-31 16:00:00 23.4 9 Noroeste 29 Noroeste 0 965.1 -1.1 42
2017-08-31 15:00:00 22.4 8 Noroeste 21 Norte 0 965.8 -0.7 47
2017-08-31 14:00:00 21.2 13 Noroeste 30 Noroeste 0 965.9 -0.6 56
2017-08-31 13:00:00 21.1 9 Noroeste 20 Noroeste 0 966.2 0.2 58
2017-08-31 12:00:00 20.5 5 Oeste 17 Oeste 0 966.5 0.9 65
2017-08-31 11:00:00 19.2 10 Noroeste 24 Oeste 0 966.5 1.5 66
2017-08-31 10:00:00 18 13 Oeste 23 Oeste 0 966 1.4 73
2017-08-31 09:00:00 16.6 6 Oeste 12 Noroeste 0 965.6 1.5 82
2017-08-31 08:00:00 16.6 7 Noroeste 14 Oeste 0 965 1.2 83
2017-08-31 07:00:00 16.8 9 Oeste 16 Oeste 0 964.6 1.4 83
2017-08-31 06:00:00 17.3 6 Oeste 20 Oeste 0 964.1 1 83
2017-08-31 05:00:00 17.7 11 Oeste 25 Oeste 0 963.8 1.2 81
2017-08-31 04:00:00 18.4 9 Oeste 22 Noroeste 0 963.2 1.7 83
2017-08-31 03:00:00 19 5 Noroeste 25 Noroeste 0 963.1 1.6 82
2017-08-31 02:00:00 19.7 9 Noroeste 16 Noroeste 0 962.6 1.1 84
2017-08-31 01:00:00 19.8 9 Sudoeste 18 Sudeste 0 961.5 0.2 83
2017-08-31 00:00:00 19.7 6 Sudoeste 14 Sudoeste 0 961.5 0.3 84
2017-08-30 23:00:00 19.8 9 Sudoeste 18 Sudoeste 0 961.5 0.5 86
2017-08-30 22:00:00 19.8 10 Sudoeste 17 Sudoeste 0 961.3 0.6 85
2017-08-30 21:00:00 20.4 3 Sur 8 Sur 0 961.2 0.7 88
2017-08-30 20:00:00 20.8 3 Sur 12 Este 0 961 1 84
2017-08-30 19:00:00 20 12 Sudeste 21 Sudeste 1.4 960.7 0.4 89
2017-08-30 18:00:00 22.5 2 Sudoeste 16 Nordeste 2.4 960.5 -0.2 79
2017-08-30 17:00:00 25.8 7 Norte 24 Noroeste 0 960 -1.1 50
2017-08-30 16:00:00 27.3 12 Norte 20 Noroeste 0 960.3 -1.2 38
2017-08-30 15:00:00 27.3 6 Noroeste 21 Norte 0 960.7 -1.2 38
2017-08-30 14:00:00 26.3 11 Norte 19 Norte 0 961.1 -0.9 42
2017-08-30 13:00:00 25.6 9 Norte 18 Norte 0 961.5 -0.3 42
2017-08-30 12:00:00 25.6 4 Oeste 13 Sudeste 0 961.9 -0.1 43
2017-08-30 11:00:00 24.6 5 Sur 17 Sudeste 0 962 -0.3 47
2017-08-30 10:00:00 22.6 8 Sudeste 30 Sur 0 961.8 0 56
2017-08-30 09:00:00 19.8 15 Sur 40 Sudeste 0 962 0.2 64
2017-08-30 08:00:00 19.3 19 Sudeste 40 Sur 0 962.3 0.2 64
2017-08-30 07:00:00 19.5 13 Sur 31 Sur 0 961.8 1.2 60
2017-08-30 06:00:00 19.6 7 Sur 23 Sur 0 961.8 -0.9 60
2017-08-30 05:00:00 19.4 10 Sudoeste 32 Sur 0 962.1 -0.3 61
2017-08-30 04:00:00 18.9 19 Sudeste 51 Sudeste 0.2 960.6 -1.3 67
2017-08-30 03:00:00 21.3 21 Sur 45 Sudeste 0 962.7 0.7 53
2017-08-30 02:00:00 22.1 13 Sudeste 35 Sur 0 962.4 0.9 53
2017-08-30 01:00:00 20.2 4 Oeste 17 Sur 0 961.9 1.3 60
2017-08-30 00:00:00 21.3 8 Sur 24 Sur 0 962 0.2 52
2017-08-29 23:00:00 22.6 13 Sudeste 63 Sudeste 0 961.5 -0.5 44
2017-08-29 22:00:00 22.4 28 Sudeste 51 Sudeste 0 960.6 -0.9 42
2017-08-29 21:00:00 21.6 25 Sudeste 59 Sur 0 961.8 1.2 48
2017-08-29 20:00:00 20.5 12 Sur 51 Sur 0.4 962 1.2 56
2017-08-29 19:00:00 22.3 24 Sur 61 Sur 0 961.5 0.5 44
2017-08-29 18:00:00 24.2 32 Sur 59 Sudeste 0 960.6 -1 34
2017-08-29 17:00:00 23.5 30 Sudeste 61 Sudeste 0 960.8 -0.8 56
2017-08-29 16:00:00 23.6 5 Este 12 Noroeste 0 961 -1.2 70
2017-08-29 15:00:00 23.5 6 Nordeste 13 Nordeste 0 961.6 -1.1 69
2017-08-29 14:00:00 22.6 6 Norte 16 Norte 0 961.6 -1.3 70
2017-08-29 13:00:00 23.4 5 Nordeste 14 Noroeste 0 962.2 -0.2 67
2017-08-29 12:00:00 22.1 7 Norte 13 Norte 0 962.7 0.7 71
2017-08-29 11:00:00 21 7 Norte 13 Norte 0 962.9 1 73
2017-08-29 10:00:00 19.9 3 Norte 10 Norte 0 962.4 0.8 77
2017-08-29 09:00:00 18 4 Norte 11 Norte 0 962 0.7 87
2017-08-29 08:00:00 18.2 6 Oeste 10 Oeste 0 961.9 0.2 85
2017-08-29 07:00:00 18 6 Noroeste 20 Sur 0 961.6 -0.8 84
2017-08-29 06:00:00 17.6 6 Sudoeste 11 Sur 0 961.3 -1.6 85
2017-08-29 05:00:00 17.5 7 Sudoeste 15 Sudoeste 0 961.7 -1.5 85
2017-08-29 04:00:00 18.1 9 Sudoeste 17 Sudoeste 0 962.4 -1.2 82
2017-08-29 03:00:00 18.2 10 Sudoeste 17 Sudoeste 0 962.9 -0.6 83
2017-08-29 02:00:00 18.8 4 Oeste 15 Oeste 0 963.2 0.3 82
2017-08-29 01:00:00 19.5 9 Oeste 27 Oeste 0 963.6 1.6 79
2017-08-29 00:00:00 20.4 12 Oeste 26 Noroeste 0 963.5 3 79
2017-08-28 23:00:00 21 18 Noroeste 33 Noroeste 0.4 962.9 2.7 87
2017-08-28 22:00:00 23.7 7 Oeste 22 Oeste 0 962 1.6 65
2017-08-28 21:00:00 23.8 5 Oeste 9 Oeste 0 960.5 -0.3 68
2017-08-28 20:00:00 24.4 3 Este 8 Nordeste 0 960.2 -0.7 58
2017-08-28 19:00:00 25.1 3 Nordeste 21 Norte 0 960.4 -0.5 54
2017-08-28 18:00:00 27 6 Noroeste 18 Noroeste 0 960.8 -0.2 52
2017-08-28 17:00:00 29.5 9 Sudoeste 27 Sudeste 0 960.9 -1.1 46
2017-08-28 16:00:00 28.3 3 Sudoeste 13 Noroeste 0 960.9 -1.9 51
2017-08-28 15:00:00 28.3 7 Norte 15 Noroeste 0 961 -2.4 49
2017-08-28 14:00:00 27.3 6 Noroeste 17 Norte 0 962 -1 57
2017-08-28 13:00:00 25.5 7 Norte 18 Norte 0 962.8 -0.5 62
2017-08-28 12:00:00 24.8 8 Norte 15 Noroeste 0 963.4 0.1 58
2017-08-28 11:00:00 23.3 7 Norte 12 Norte 0 963 0 66
2017-08-28 10:00:00 21.2 3 Norte 8 Norte 0 963.3 0.7 71
2017-08-28 09:00:00 19.1 3 Noroeste 10 Norte 0 963.3 0.7 82
2017-08-28 08:00:00 18.9 3 Sudoeste 11 Sudoeste 0 963 -0.3 81
2017-08-28 07:00:00 19.5 5 Sudoeste 18 Sudoeste 0 962.6 -0.3 73
2017-08-28 06:00:00 19.6 7 Sudoeste 17 Sudoeste 0 962.6 -0.6 77
2017-08-28 05:00:00 19 8 Sudoeste 12 Sudoeste 0 963.3 -0.3 82
2017-08-28 04:00:00 18.7 5 Sudoeste 9 Sudoeste 0 962.9 -0.8 85
2017-08-28 03:00:00 19 2 Sudoeste 8 Oeste 0 963.2 -0.4 84
2017-08-28 02:00:00 19.8 4 Oeste 10 Noroeste 0 963.6 0.1 82
2017-08-28 01:00:00 21.2 3 Sudeste 15 Este 0 963.7 -1 68
2017-08-28 00:00:00 22.3 8 Sudeste 23 Sudeste 0 963.6 -1.1 60
2017-08-27 23:00:00 21.6 8 Sudeste 18 Sudeste 0 963.5 -1.7 75
2017-08-27 22:00:00 22 4 Sur 10 Sudeste 0 964.7 -0.5 78
2017-08-27 21:00:00 22.3 2 Norte 16 Oeste 0 964.7 0.7 77
2017-08-27 20:00:00 22.8 9 Noroeste 17 Norte 0 965.2 1.7 75
2017-08-27 19:00:00 23.7 8 Norte 25 Norte 0 965.2 3.3 66
2017-08-27 18:00:00 24.9 16 Noroeste 45 Oeste 0 964 2.1 60
2017-08-27 17:00:00 26.4 27 Noroeste 54 Oeste 0 963.5 1.2 51
2017-08-27 16:00:00 31.2 13 Sudeste 28 Este 0 961.9 -1.1 31
2017-08-27 15:00:00 31.6 6 Norte 15 Nordeste 0 961.9 -1.7 35
2017-08-27 14:00:00 30.2 7 Nordeste 15 Norte 0 962.3 -1.2 41
2017-08-27 13:00:00 29.2 5 Nordeste 10 Nordeste 0 963 -0.2 46
2017-08-27 12:00:00 26.7 0 Calma 5 Sudeste 0 963.6 0.6 55
2017-08-27 11:00:00 24.7 3 Sudeste 12 Sudoeste 0 963.5 0.4 67
2017-08-27 10:00:00 23.9 9 Sudoeste 17 Sudoeste 0 963.2 0.6 66
2017-08-27 09:00:00 22.4 5 Sudoeste 12 Sudoeste 0 963 0 73
2017-08-27 08:00:00 21.4 4 Sudoeste 17 Sudoeste 0 963.1 -0.5 75
2017-08-27 07:00:00 20.9 5 Sudoeste 14 Sudoeste 0 962.6 -1.8 79
2017-08-27 06:00:00 20.8 5 Sur 11 Sur 0 963 -0.4 84
2017-08-27 05:00:00 21.3 3 Sudoeste 12 Noroeste 0 963.6 0.3 82
2017-08-27 04:00:00 22.3 6 Noroeste 16 Sudoeste 0 964.4 1.1 73
2017-08-27 03:00:00 23.4 7 Sur 26 Sudoeste 0 963.4 0.7 64
2017-08-27 02:00:00 24.1 16 Sudoeste 36 Sur 0 963.3 -0.9 65
2017-08-27 01:00:00 22.6 12 Sur 40 Sudeste 0 963.3 -1.4 74
2017-08-27 00:00:00 22.4 11 Este 24 Sudeste 0 962.7 -0.1 74
2017-08-26 23:00:00 20.6 10 Sur 39 Sudoeste 0.2 964.2 -0.2 90
2017-08-26 22:00:00 19.8 10 Sudoeste 40 Sudoeste 0 964.7 -0.3 99
2017-08-26 21:00:00 18.9 18 Sudeste 31 Este 0.4 962.8 2.7 100
2017-08-26 20:00:00 19.6 6 Sur 49 Noroeste 5 964.4 4.1 100
2017-08-26 19:00:00 18.9 47 Oeste 85 Oeste 12.8 965 3.9 98
2017-08-26 18:00:00 29.3 27 Oeste 54 Oeste 0 960.1 -1.7 44
2017-08-26 17:00:00 33.5 13 Norte 26 Norte 0 960.3 -2.2 32
2017-08-26 16:00:00 34 9 Norte 21 Noroeste 0 961.1 -1.7 29
2017-08-26 15:00:00 32.8 8 Norte 18 Norte 0 961.8 -1.5 34
2017-08-26 14:00:00 30.1 6 Norte 14 Norte 0 962.5 -0.8 40
2017-08-26 13:00:00 28.8 5 Este 12 Este 0 962.8 0.1 47
2017-08-26 12:00:00 25.2 4 Norte 9 Norte 0.2 963.3 0.9 57
2017-08-26 11:00:00 24.2 4 Norte 12 Norte 0 963.3 1.3 60
2017-08-26 10:00:00 24.1 7 Norte 11 Noroeste 0 962.7 0.9 51
2017-08-26 09:00:00 22.7 6 Norte 15 Sudeste 0 962.4 0.8 59
2017-08-26 08:00:00 23.3 5 Nordeste 11 Nordeste 0 962 0.4 49
2017-08-26 07:00:00 24.1 0 Calma 23 Sudeste 0 961.8 -0.1 47
2017-08-26 06:00:00 24.9 5 Sur 28 Sudeste 0 961.6 -0.3 44
2017-08-26 05:00:00 25.5 12 Sudeste 33 Sudeste 0 961.6 -0.6 39
2017-08-26 04:00:00 24.6 4 Norte 23 Este 0 961.9 0 37
2017-08-26 03:00:00 25.9 7 Sudeste 24 Este 0 961.9 -0.8 33
2017-08-26 02:00:00 25.9 10 Sur 36 Sur 0 962.2 -0.6 33
2017-08-26 01:00:00 26.6 19 Sur 44 Sudeste 0 961.9 -1.4 31
2017-08-26 00:00:00 26.9 20 Sur 57 Sudeste 0 962.7 0.9 30
2017-08-25 23:00:00 28.3 29 Sur 88 Sudeste 0 962.8 1.9 27
2017-08-25 22:00:00 29.7 24 Sur 55 Sudoeste 0 963.3 3 25
2017-08-25 21:00:00 29.9 9 Este 15 Sudeste 0 961.8 1.7 40
2017-08-25 20:00:00 31.2 10 Sudeste 28 Sudeste 0 960.9 0.5 38
2017-08-25 19:00:00 32.5 15 Sudeste 48 Sudeste 0 960.3 -0.8 34
2017-08-25 18:00:00 33.7 27 Sudeste 53 Sudeste 0 960.1 -2.3 28
2017-08-25 17:00:00 36.3 19 Sudeste 39 Sudeste 0 960.4 -2.2 17
2017-08-25 16:00:00 35 19 Sudeste 39 Sudeste 0 961.1 -2 18
2017-08-25 15:00:00 32.9 12 Este 22 Este 0 962.4 -1 24
2017-08-25 14:00:00 32.3 7 Nordeste 20 Norte 0 962.6 -0.5 25
2017-08-25 13:00:00 31.7 7 Nordeste 18 Norte 0 963.1 -0.2 25
2017-08-25 12:00:00 29.2 10 Noroeste 19 Noroeste 0 963.4 0.3 32
2017-08-25 11:00:00 27.3 4 Nordeste 11 Norte 0 963.1 0.2 41
2017-08-25 10:00:00 24.3 3 Nordeste 9 Nordeste 0 963.3 0.9 52
2017-08-25 09:00:00 21.7 3 Este 9 Este 0 963.1 0.9 64
2017-08-25 08:00:00 21.3 3 Este 6 Este 0 962.9 0.6 57
2017-08-25 07:00:00 23.2 4 Noroeste 13 Norte 0 962.4 -0.1 42
2017-08-25 06:00:00 25.9 5 Oeste 13 Sur 0 962.2 -0.3 26
2017-08-25 05:00:00 26.5 5 Sudeste 18 Sur 0 962.3 -0.2 25
2017-08-25 04:00:00 26.6 3 Sur 17 Sur 0 962.5 1 30
2017-08-25 03:00:00 26.8 7 Sur 28 Sudeste 0 962.5 0.9 33
2017-08-25 02:00:00 27.4 12 Sudoeste 44 Sur 0 962.5 1.2 32
2017-08-25 01:00:00 27.3 23 Sur 57 Sudeste 0 961.5 0.5 35
2017-08-25 00:00:00 27 19 Sur 51 Sur 0 961.6 1.3 41
2017-08-24 23:00:00 27.3 23 Sur 54 Sur 0 961.3 1.2 41
2017-08-24 22:00:00 28.2 19 Sur 51 Sudeste 0 961 0.6 39
2017-08-24 21:00:00 29.9 21 Sur 41 Sudeste 0 960.3 -0.4 33
2017-08-24 20:00:00 31.5 21 Sudeste 41 Sudeste 0 960.1 -1 30
2017-08-24 19:00:00 32.6 17 Sudeste 33 Sudeste 0 960.4 -1.2 29
2017-08-24 18:00:00 35.1 14 Sudeste 31 Sudeste 0 960.7 -1.4 25
2017-08-24 17:00:00 36.6 8 Sur 27 Nordeste 0 961.1 -1.6 22
2017-08-24 16:00:00 34.7 10 Nordeste 24 Nordeste 0 961.6 -1.7 25
2017-08-24 15:00:00 33.7 10 Norte 24 Norte 0 962.1 -1.8 27
2017-08-24 14:00:00 32.4 9 Nordeste 19 Este 0 962.7 -1.3 30
2017-08-24 13:00:00 30.7 6 Norte 20 Norte 0 963.3 -0.7 36
2017-08-24 12:00:00 29.1 6 Nordeste 16 Norte 0 963.9 0.2 44
2017-08-24 11:00:00 28.1 9 Sudeste 17 Sudeste 0 964 0.3 47
2017-08-24 10:00:00 24.4 2 Nordeste 17 Sudeste 0 964 0.5 67
2017-08-24 09:00:00 22.6 7 Este 15 Sudoeste 0 963.7 0 77
2017-08-24 08:00:00 21.4 4 Sudoeste 15 Sudoeste 0 963.7 -0.9 82
2017-08-24 07:00:00 20.8 5 Este 13 Sur 0 963.5 -2 85
2017-08-24 06:00:00 21.2 4 Sudoeste 13 Sudeste 0 963.7 -2 82
2017-08-24 05:00:00 21.3 5 Sur 12 Este 0 964.6 0.1 84
2017-08-24 04:00:00 22.2 3 Este 9 Norte 0 965.5 2.5 83
2017-08-24 03:00:00 22.2 4 Norte 53 Noroeste 0 965.7 2.2 84
2017-08-24 02:00:00 24 22 Noroeste 42 Noroeste 0 964.5 1.8 67
2017-08-24 01:00:00 23.8 6 Noroeste 10 Oeste 0 963 1.8 67
2017-08-24 00:00:00 24.6 6 Oeste 21 Nordeste 0 963.5 2.1 63
2017-08-23 23:00:00 27.1 4 Nordeste 31 Sur 0 962.7 0.6 50
2017-08-23 22:00:00 27.6 16 Sur 37 Sur 0 961.2 -1 48
2017-08-23 21:00:00 28.1 22 Sur 51 Sudeste 0 961.4 -0.3 49
2017-08-23 20:00:00 28.8 9 Sur 29 Sudeste 0 962.1 -0.5 48
2017-08-23 19:00:00 28.6 9 Norte 27 Sudeste 0 962.2 -0.9 52
2017-08-23 18:00:00 29.8 4 Nordeste 16 Oeste 0 961.7 -1.4 47
2017-08-23 17:00:00 30.2 7 Nordeste 24 Este 0 962.6 -0.9 41
2017-08-23 16:00:00 30.2 10 Noroeste 26 Noroeste 0 963.1 -1.2 38
2017-08-23 15:00:00 31.1 12 Norte 21 Norte 0 963.1 -1.5 36
2017-08-23 14:00:00 30.6 9 Norte 22 Norte 0 963.5 -1 38
2017-08-23 13:00:00 28.9 8 Norte 23 Nordeste 0 964.3 0 43
2017-08-23 12:00:00 27.7 5 Norte 17 Noroeste 0 964.6 0.6 41
2017-08-23 11:00:00 26.6 7 Norte 18 Noroeste 0 964.5 0.8 43
2017-08-23 10:00:00 26 4 Oeste 11 Noroeste 0 964.3 0.7 40
2017-08-23 09:00:00 23.3 4 Sudoeste 13 Sudoeste 0 964 0.5 54
2017-08-23 08:00:00 22.1 6 Sur 18 Sudoeste 0 963.7 0.4 57
2017-08-23 07:00:00 21 5 Sudoeste 9 Sudoeste 0 963.6 0.7 70
2017-08-23 06:00:00 21.2 4 Sudoeste 6 Sudoeste 0 963.5 1.3 70
2017-08-23 05:00:00 22.1 0 Calma 8 Noroeste 0 963.3 1 68
2017-08-23 04:00:00 22.8 3 Oeste 26 Noroeste 0 962.9 -0.1 64
2017-08-23 03:00:00 27.1 9 Sudoeste 24 Sudoeste 0 962.2 -0.5 35
2017-08-23 02:00:00 26.3 9 Sur 15 Sur 0 962.3 0.8 41
2017-08-23 01:00:00 26.3 4 Norte 23 Norte 0 963 2 49
2017-08-23 00:00:00 27.4 6 Este 31 Noroeste 0 962.7 2 44
2017-08-22 23:00:00 29.3 14 Sur 29 Sudeste 0 961.5 1.1 34
2017-08-22 22:00:00 30.2 15 Sur 34 Sudeste 0 961 0.7 32
2017-08-22 21:00:00 31.7 22 Sudeste 36 Sudeste 0 960.7 0 30
2017-08-22 20:00:00 34.1 13 Sur 33 Sur 0 960.4 -0.9 27
2017-08-22 19:00:00 36.8 6 Nordeste 22 Nordeste 0 960.3 -1.7 22
2017-08-22 18:00:00 36.8 8 Nordeste 22 Nordeste 0 960.7 -2 19
2017-08-22 17:00:00 36.2 10 Norte 22 Noroeste 0 961.3 -2 21
2017-08-22 16:00:00 35.6 8 Norte 21 Norte 0 962 -2.1 23
2017-08-22 15:00:00 34.7 11 Norte 20 Norte 0 962.7 -1.8 25
2017-08-22 14:00:00 33.6 8 Norte 18 Nordeste 0 963.3 -1.5 29
2017-08-22 13:00:00 31.7 7 Norte 16 Norte 0 964.1 -0.9 34
2017-08-22 12:00:00 30 5 Nordeste 12 Nordeste 0 964.5 -0.5 38
2017-08-22 11:00:00 27 4 Nordeste 12 Este 0 964.8 0.2 45
2017-08-22 10:00:00 24.2 5 Este 12 Sudeste 0 965 0.6 55
2017-08-22 09:00:00 20.7 2 Este 8 Norte 0 965 0.9 67
2017-08-22 08:00:00 19.6 3 Nordeste 8 Oeste 0 964.6 0.4 71
2017-08-22 07:00:00 20.8 3 Noroeste 19 Sudoeste 0 964.4 0.6 61
2017-08-22 06:00:00 22.4 4 Sur 16 Sudoeste 0 964.1 0.2 53
2017-08-22 05:00:00 23.3 9 Oeste 30 Sur 0 964.2 0.3 55
2017-08-22 04:00:00 23.6 13 Sur 27 Sur 0 963.8 -0.2 55
2017-08-22 03:00:00 24.4 13 Sur 37 Sur 0 963.9 -0.2 53
2017-08-22 02:00:00 24.9 17 Sur 40 Sur 0 963.9 -0.1 53
2017-08-22 01:00:00 25.1 16 Sur 38 Sudeste 0 964 0.3 55
2017-08-22 00:00:00 25.8 13 Sur 32 Sur 0 964.1 0.8 54